Horseshoe Bay, Texas
Current Conditions -  °F | °C
As of 12:35 PM on Saturday 20 Dec 2014 (Local Time) from KDZB Reporting Station
Overcast Overcast  
Wind Chill: 48°   Ceiling: 1900
Heat Index: 50°   Visibility: 10mi
Dew Point: 41°   Wind: 5mph
Humidity: 71%   Direction: 40°NE
Pressure: 30.22"   Gusts: NA
Location:  30.5928°N, 98.3476°W
Report Text: KDZB 201835Z AUTO 04004KT 10SM OVC019 10/05 A3022 RMK AO2 T00990048
Loading
Personal Weather Stations






























Interactive Weather Map New forecast layout! Learn more

10-Day Weather Forecast

Advertisements
Track Severe Weather on mobile